createdAt,value
2022-10-23T00:00:34.439Z,100565.78
2022-10-23T00:01:39.857Z,100559.44
2022-10-23T00:02:42.283Z,100562.22
2022-10-23T00:03:45.249Z,100560.53
2022-10-23T00:04:51.748Z,100562.22
2022-10-23T00:05:53.935Z,100564.97
2022-10-23T00:06:56.191Z,100562.44
2022-10-23T00:08:00.707Z,100565.22
2022-10-23T00:09:06.098Z,100567.75
2022-10-23T00:10:10.567Z,100566.88
2022-10-23T00:11:15.950Z,100560.53
2022-10-23T00:12:18.830Z,100567.97
2022-10-23T00:13:21.146Z,100570.75
2022-10-23T00:14:24.875Z,100571.59
2022-10-23T00:15:27.625Z,100571.59
2022-10-23T00:16:30.019Z,100571.59
2022-10-23T00:17:35.101Z,100569.66
2022-10-23T00:18:41.003Z,100565.22
2022-10-23T00:19:43.243Z,100564.13
2022-10-23T00:20:45.618Z,100563.28
2022-10-23T00:21:47.814Z,100562.44
2022-10-23T00:22:50.182Z,100559.94
2022-10-23T00:23:52.727Z,100564.38
2022-10-23T00:24:54.915Z,100556.34
2022-10-23T00:25:57.125Z,100565.22
2022-10-23T00:26:59.305Z,100561.06
2022-10-23T00:28:04.297Z,100554.69
2022-10-23T00:29:08.178Z,100554.69
2022-10-23T00:30:11.588Z,100557.72
2022-10-23T00:31:14.622Z,100556.63
2022-10-23T00:32:16.883Z,100559.38
2022-10-23T00:33:19.093Z,100558.53
2022-10-23T00:34:21.354Z,100554.94
2022-10-23T00:35:25.865Z,100554.13
2022-10-23T00:36:30.452Z,100557.13
2022-10-23T00:37:33.454Z,100556.03
2022-10-23T00:38:36.368Z,100548.81
2022-10-23T00:39:38.544Z,100553.53
2022-10-23T00:40:42.432Z,100554.34
2022-10-23T00:41:44.731Z,100553.53
2022-10-23T00:42:47.028Z,100549.09
2022-10-23T00:44:18.174Z,100558.25
2022-10-23T00:45:26.684Z,100552.72
2022-10-23T00:46:30.030Z,100554.63
2022-10-23T00:47:32.310Z,100556.56
2022-10-23T00:48:34.485Z,100547.69
2022-10-23T00:49:38.377Z,100551.53
2022-10-23T00:50:42.414Z,100556.25
2022-10-23T00:51:49.075Z,100559.00
2022-10-23T00:52:53.668Z,100548.22
2022-10-23T00:54:22.786Z,100563.94
2022-10-23T00:55:28.415Z,100550.38
2022-10-23T00:56:32.861Z,100557.84
2022-10-23T00:57:35.387Z,100557.00
2022-10-23T00:58:37.627Z,100561.72
2022-10-23T00:59:43.176Z,100564.47
2022-10-23T01:00:55.912Z,100558.34
2022-10-23T01:02:00.028Z,100557.81
2022-10-23T01:03:04.368Z,100560.56
2022-10-23T01:04:08.174Z,100561.66
2022-10-23T01:05:10.844Z,100558.06
2022-10-23T01:06:45.385Z,100557.75
2022-10-23T01:08:02.114Z,100564.09
2022-10-23T01:09:18.849Z,100569.88
2022-10-23T01:10:27.968Z,100568.47
2022-10-23T01:11:42.373Z,100566.78
2022-10-23T01:12:56.046Z,100569.56
2022-10-23T01:15:37.179Z,100564.81
2022-10-23T01:16:51.457Z,100576.16
2022-10-23T01:18:21.147Z,100575.56
2022-10-23T01:19:43.326Z,100563.34
2022-10-23T01:20:57.485Z,100569.13
2022-10-23T01:22:14.184Z,100565.78
2022-10-23T01:23:34.994Z,100573.25
2022-10-23T01:25:05.488Z,100567.97
2022-10-23T01:26:56.969Z,100568.47
2022-10-23T01:28:07.958Z,100570.41
2022-10-23T01:29:15.909Z,100567.06
2022-10-23T01:30:18.541Z,100570.69
2022-10-23T01:31:49.591Z,100569.00
2022-10-23T01:33:01.825Z,100563.75
2022-10-23T01:34:13.144Z,100569.50
2022-10-23T01:35:38.280Z,100569.50
2022-10-23T01:36:46.880Z,100567.84
2022-10-23T01:38:09.387Z,100566.44
2022-10-23T01:39:16.283Z,100563.91
2022-10-23T01:40:28.379Z,100568.59
2022-10-23T01:41:43.077Z,100565.03
2022-10-23T01:42:51.198Z,100566.94
2022-10-23T01:44:11.220Z,100563.59
2022-10-23T01:45:24.261Z,100568.88
2022-10-23T01:46:28.171Z,100566.38
2022-10-23T01:47:34.345Z,100567.44
2022-10-23T01:48:46.094Z,100566.84
2022-10-23T01:49:51.547Z,100574.59
2022-10-23T01:50:57.116Z,100569.88
2022-10-23T01:52:03.430Z,100567.38
2022-10-23T01:53:07.562Z,100573.72
2022-10-23T01:54:13.572Z,100565.69
2022-10-23T01:55:17.760Z,100573.16
2022-10-23T01:56:26.765Z,100573.16
2022-10-23T01:57:33.365Z,100568.72
2022-10-23T01:58:37.517Z,100568.72
2022-10-23T01:59:44.739Z,100569.00
2022-10-23T02:00:50.915Z,100567.03
2022-10-23T02:01:57.157Z,100567.31
2022-10-23T02:03:03.377Z,100565.38
2022-10-23T02:04:11.704Z,100557.59
2022-10-23T02:05:29.026Z,100554.84
2022-10-23T02:06:32.612Z,100553.75
2022-10-23T02:07:36.039Z,100563.13
2022-10-23T02:08:38.327Z,100560.38
2022-10-23T02:09:41.172Z,100549.56
2022-10-23T02:10:52.689Z,100554.25
2022-10-23T02:12:10.248Z,100550.66
2022-10-23T02:13:25.325Z,100549.84
2022-10-23T02:14:50.992Z,100552.34
2022-10-23T02:16:22.233Z,100541.78
2022-10-23T02:17:29.451Z,100545.41
2022-10-23T02:19:00.885Z,100550.06
2022-10-23T02:20:34.800Z,100551.19
2022-10-23T02:22:00.998Z,100551.41
2022-10-23T02:23:15.816Z,100550.59
2022-10-23T02:24:27.904Z,100554.19
2022-10-23T02:25:45.186Z,100552.75
2022-10-23T02:26:57.761Z,100543.66
2022-10-23T02:28:04.807Z,100546.16
2022-10-23T02:29:27.069Z,100554.69
2022-10-23T02:30:37.729Z,100537.78
2022-10-23T02:31:45.744Z,100542.22
2022-10-23T02:32:51.646Z,100542.50
2022-10-23T02:33:54.340Z,100548.84
2022-10-23T02:34:57.075Z,100545.50
2022-10-23T02:35:59.545Z,100542.75
2022-10-23T02:37:04.649Z,100541.66
2022-10-23T02:38:37.131Z,100544.44
2022-10-23T02:39:40.500Z,100538.56
2022-10-23T02:40:46.165Z,100541.06
2022-10-23T02:41:54.111Z,100541.34
2022-10-23T02:43:05.810Z,100540.47
2022-10-23T02:44:25.300Z,100543.25
2022-10-23T02:45:43.861Z,100539.66
2022-10-23T02:47:01.322Z,100537.16
2022-10-23T02:48:18.427Z,100530.56
2022-10-23T02:49:36.438Z,100537.41
2022-10-23T02:51:02.721Z,100542.94
2022-10-23T02:52:13.948Z,100542.09
2022-10-23T02:53:20.701Z,100532.97
2022-10-23T02:54:32.229Z,100543.16
2022-10-23T02:56:11.723Z,100541.53
2022-10-23T02:57:23.897Z,100541.53
2022-10-23T02:58:31.730Z,100536.22
2022-10-23T02:59:58.781Z,100540.94
2022-10-23T03:01:08.805Z,100548.38
2022-10-23T03:02:26.005Z,100547.78
2022-10-23T03:03:34.772Z,100539.50
2022-10-23T03:04:40.221Z,100547.16
2022-10-23T03:05:45.665Z,100540.56
2022-10-23T03:06:50.960Z,100541.63
2022-10-23T03:07:53.591Z,100544.41
2022-10-23T03:09:02.496Z,100536.13
2022-10-23T03:10:05.143Z,100540.00
2022-10-23T03:11:08.162Z,100537.22
2022-10-23T03:12:10.674Z,100532.78
2022-10-23T03:13:13.025Z,100533.06
2022-10-23T03:14:17.373Z,100534.13
2022-10-23T03:15:20.504Z,100537.72
2022-10-23T03:16:24.925Z,100529.44
2022-10-23T03:17:29.757Z,100538.84
2022-10-23T03:18:34.651Z,100537.16
2022-10-23T03:19:38.005Z,100542.69
2022-10-23T03:20:40.574Z,100552.03
2022-10-23T03:21:42.822Z,100552.03
2022-10-23T03:22:45.751Z,100539.06
2022-10-23T03:23:48.662Z,100546.25
2022-10-23T03:24:53.972Z,100537.16
2022-10-23T03:25:56.608Z,100551.78
2022-10-23T03:27:08.893Z,100539.06
2022-10-23T03:28:11.190Z,100537.16
2022-10-23T03:29:13.634Z,100549.03
2022-10-23T03:30:19.090Z,100546.53
2022-10-23T03:31:25.418Z,100543.75
2022-10-23T03:32:31.982Z,100552.88
2022-10-23T03:33:35.796Z,100542.69
2022-10-23T03:34:43.999Z,100536.31
2022-10-23T03:35:49.143Z,100548.69
2022-10-23T03:36:52.116Z,100550.09
2022-10-23T03:37:56.378Z,100540.41
2022-10-23T03:39:01.002Z,100544.00
2022-10-23T03:40:04.109Z,100543.41
2022-10-23T03:41:09.757Z,100540.66
2022-10-23T03:42:12.218Z,100542.34
2022-10-23T03:43:14.673Z,100542.59
2022-10-23T03:44:17.021Z,100549.78
2022-10-23T03:45:20.937Z,100545.63
2022-10-23T03:46:24.513Z,100544.50
2022-10-23T03:47:30.607Z,100547.53
2022-10-23T03:48:33.369Z,100545.63
2022-10-23T03:49:36.048Z,100553.63
2022-10-23T03:50:41.918Z,100548.38
2022-10-23T03:51:44.931Z,100549.47
2022-10-23T03:52:47.170Z,100546.97
2022-10-23T03:53:49.519Z,100541.19
2022-10-23T03:54:51.747Z,100547.78
2022-10-23T03:55:53.995Z,100535.91
2022-10-23T03:56:57.717Z,100537.00
2022-10-23T03:58:01.357Z,100542.50
2022-10-23T03:59:04.160Z,100541.66
2022-10-23T04:00:07.427Z,100540.84
2022-10-23T04:01:29.730Z,100543.59
2022-10-23T04:02:32.138Z,100548.28
2022-10-23T04:03:34.425Z,100546.34
2022-10-23T04:04:36.657Z,100545.53
2022-10-23T04:05:39.245Z,100554.91
2022-10-23T04:06:41.562Z,100555.97
2022-10-23T04:07:43.988Z,100552.13
2022-10-23T04:08:46.260Z,100546.03
2022-10-23T04:09:51.245Z,100554.28
2022-10-23T04:10:54.568Z,100549.88
2022-10-23T04:12:05.336Z,100534.41
2022-10-23T04:13:07.625Z,100536.91
2022-10-23T04:14:15.515Z,100531.66
2022-10-23T04:15:17.736Z,100537.19
2022-10-23T04:16:24.898Z,100546.53
2022-10-23T04:18:30.216Z,100546.53
2022-10-23T04:19:32.564Z,100544.84
2022-10-23T04:20:34.870Z,100541.28
2022-10-23T04:21:38.431Z,100541.28
2022-10-23T04:22:40.936Z,100532.13
2022-10-23T04:23:43.897Z,100536.84
2022-10-23T04:24:48.420Z,100535.16
2022-10-23T04:25:57.273Z,100546.19
2022-10-23T04:27:00.546Z,100545.38
2022-10-23T04:28:05.456Z,100540.94
2022-10-23T04:29:12.333Z,100546.44
2022-10-23T04:30:14.902Z,100544.50
2022-10-23T04:31:17.516Z,100534.81
2022-10-23T04:32:19.770Z,100542.53
2022-10-23T04:33:22.282Z,100538.91
2022-10-23T04:34:26.992Z,100541.69
2022-10-23T04:35:30.067Z,100537.50
2022-10-23T04:36:32.524Z,100537.50
2022-10-23T04:37:42.604Z,100545.19
2022-10-23T04:38:45.047Z,100545.19
2022-10-23T04:39:47.456Z,100538.00
2022-10-23T04:40:49.887Z,100543.53
2022-10-23T04:41:56.141Z,100547.38
2022-10-23T04:43:00.637Z,100542.09
2022-10-23T04:44:07.757Z,100545.38
2022-10-23T04:45:13.674Z,100541.75
2022-10-23T04:46:18.909Z,100550.03
2022-10-23T04:47:23.205Z,100545.59
2022-10-23T04:48:34.168Z,100539.50
2022-10-23T04:49:56.407Z,100543.34
2022-10-23T04:51:21.738Z,100538.09
2022-10-23T04:52:38.389Z,100542.78
2022-10-23T04:54:00.836Z,100545.53
2022-10-23T04:55:28.866Z,100542.19
2022-10-23T04:56:49.972Z,100547.69
2022-10-23T04:57:54.839Z,100546.03
2022-10-23T04:59:00.024Z,100544.13
2022-10-23T05:00:05.569Z,100553.47
2022-10-23T05:01:15.105Z,100546.53
2022-10-23T05:02:17.783Z,100545.66
2022-10-23T05:03:25.973Z,100550.38
2022-10-23T05:04:28.212Z,100551.19
2022-10-23T05:05:48.607Z,100545.66
2022-10-23T05:07:05.511Z,100544.03
2022-10-23T05:08:17.882Z,100555.88
2022-10-23T05:09:58.951Z,100540.66
2022-10-23T05:11:05.545Z,100546.19
2022-10-23T05:12:12.752Z,100541.50
2022-10-23T05:13:15.102Z,100545.09
2022-10-23T05:14:20.619Z,100543.44
2022-10-23T05:15:25.355Z,100544.25
2022-10-23T05:16:55.690Z,100542.34
2022-10-23T05:18:02.637Z,100548.13
2022-10-23T05:19:09.089Z,100538.16
2022-10-23T05:20:18.474Z,100540.06
2022-10-23T05:21:27.335Z,100547.50
2022-10-23T05:22:35.607Z,100540.94
2022-10-23T05:23:43.045Z,100546.69
2022-10-23T05:24:48.250Z,100546.44
2022-10-23T05:25:55.681Z,100540.31
2022-10-23T05:26:58.139Z,100542.81
2022-10-23T05:28:00.426Z,100540.31
2022-10-23T05:29:03.009Z,100543.94
2022-10-23T05:30:06.029Z,100545.84
2022-10-23T05:31:12.719Z,100541.19
2022-10-23T05:32:17.263Z,100546.91
2022-10-23T05:33:19.664Z,100548.84
2022-10-23T05:34:27.294Z,100546.34
2022-10-23T05:35:31.309Z,100545.28
2022-10-23T05:36:33.604Z,100548.25
2022-10-23T05:37:40.080Z,100547.44
2022-10-23T05:38:54.777Z,100548.25
2022-10-23T05:39:57.344Z,100538.31
2022-10-23T05:40:59.635Z,100545.50
2022-10-23T05:42:02.899Z,100535.56
2022-10-23T05:43:06.671Z,100542.16
2022-10-23T05:44:38.287Z,100532.81
2022-10-23T05:45:59.431Z,100532.81
2022-10-23T05:47:22.846Z,100535.56
2022-10-23T05:48:43.584Z,100540.84
2022-10-23T05:50:04.400Z,100537.22
2022-10-23T05:51:40.305Z,100530.06
2022-10-23T05:53:17.829Z,100533.63
2022-10-23T05:54:38.543Z,100526.19
2022-10-23T05:56:09.980Z,100534.47
2022-10-23T05:57:35.068Z,100530.88
2022-10-23T05:58:48.338Z,100534.47
2022-10-23T06:00:03.909Z,100533.63
2022-10-23T06:01:18.629Z,100533.63
2022-10-23T06:02:33.012Z,100529.81
2022-10-23T06:03:44.488Z,100541.66
2022-10-23T06:04:47.734Z,100544.66
2022-10-23T06:06:08.311Z,100542.72
2022-10-23T06:07:23.538Z,100542.72
2022-10-23T06:08:26.215Z,100544.66
2022-10-23T06:09:29.116Z,100538.06
2022-10-23T06:10:33.449Z,100537.22
2022-10-23T06:11:39.359Z,100547.16
2022-10-23T06:12:47.334Z,100545.50
2022-10-23T06:13:52.228Z,100551.88
2022-10-23T06:14:56.641Z,100548.84
2022-10-23T06:16:14.988Z,100548.03
2022-10-23T06:17:17.215Z,100548.03
2022-10-23T06:18:22.065Z,100544.16
2022-10-23T06:19:39.397Z,100546.69
2022-10-23T06:20:42.399Z,100543.94
2022-10-23T06:21:50.047Z,100540.06
2022-10-23T06:23:08.967Z,100543.09
2022-10-23T06:24:29.760Z,100542.00
2022-10-23T06:25:37.410Z,100543.09
2022-10-23T06:26:40.730Z,100542.25
2022-10-23T06:27:46.256Z,100536.47
2022-10-23T06:28:48.768Z,100528.22
2022-10-23T06:29:51.027Z,100538.16
2022-10-23T06:30:53.418Z,100537.31
2022-10-23T06:31:55.723Z,100533.22
2022-10-23T06:33:01.006Z,100537.09
2022-10-23T06:34:06.133Z,100544.03
2022-10-23T06:35:09.013Z,100544.03
2022-10-23T06:36:11.478Z,100543.78
2022-10-23T06:37:17.023Z,100542.69
2022-10-23T06:38:52.308Z,100553.72
2022-10-23T06:39:56.730Z,100553.72
2022-10-23T06:41:17.048Z,100545.44
2022-10-23T06:42:21.506Z,100558.72
2022-10-23T06:43:30.740Z,100552.38
2022-10-23T06:45:06.279Z,100554.28
2022-10-23T06:46:12.090Z,100555.97
2022-10-23T06:47:34.224Z,100556.78
2022-10-23T06:48:54.927Z,100554.91
2022-10-23T06:50:01.376Z,100561.22
2022-10-23T06:51:08.795Z,100564.84
2022-10-23T06:52:41.779Z,100564.25
2022-10-23T06:53:40.356Z,100558.13
2022-10-23T06:55:05.908Z,100560.41
2022-10-23T06:56:12.265Z,100552.69
2022-10-23T06:57:14.625Z,100551.88
2022-10-23T06:58:21.011Z,100548.88
2022-10-23T06:59:34.012Z,100557.13
2022-10-23T07:00:38.912Z,100554.13
2022-10-23T07:01:42.147Z,100558.56
2022-10-23T07:02:46.053Z,100561.06
2022-10-23T07:03:49.318Z,100555.28
2022-10-23T07:04:55.582Z,100558.91
2022-10-23T07:06:01.956Z,100553.38
2022-10-23T07:07:04.502Z,100559.47
2022-10-23T07:08:15.530Z,100560.91
2022-10-23T07:09:20.205Z,100567.28
2022-10-23T07:10:25.570Z,100557.91
2022-10-23T07:11:32.142Z,100559.56
2022-10-23T07:12:34.400Z,100560.97
2022-10-23T07:13:59.395Z,100564.59
2022-10-23T07:15:01.735Z,100561.31
2022-10-23T07:16:31.019Z,100554.13
2022-10-23T07:17:33.710Z,100565.75
2022-10-23T07:18:35.965Z,100564.16
2022-10-23T07:19:56.703Z,100562.22
2022-10-23T07:20:59.245Z,100563.66
2022-10-23T07:22:01.497Z,100563.66
2022-10-23T07:23:26.229Z,100561.75
2022-10-23T07:24:28.897Z,100562.56
2022-10-23T07:25:33.030Z,100562.91
2022-10-23T07:26:37.074Z,100563.75
2022-10-23T07:27:40.105Z,100562.66
2022-10-23T07:28:46.627Z,100562.19
2022-10-23T07:29:53.427Z,100558.06
2022-10-23T07:30:57.816Z,100561.41
2022-10-23T07:32:01.894Z,100563.91
2022-10-23T07:33:39.483Z,100558.72
2022-10-23T07:34:49.678Z,100560.97
2022-10-23T07:36:00.270Z,100567.94
2022-10-23T07:37:04.400Z,100560.78
2022-10-23T07:38:06.649Z,100564.94
2022-10-23T07:39:12.711Z,100565.50
2022-10-23T07:40:22.113Z,100557.81
2022-10-23T07:41:27.475Z,100554.53
2022-10-23T07:42:29.676Z,100549.38
2022-10-23T07:43:33.785Z,100547.75
2022-10-23T07:44:36.033Z,100551.69
2022-10-23T07:45:38.278Z,100547.31
2022-10-23T07:46:50.156Z,100550.13
2022-10-23T07:47:53.251Z,100549.13
2022-10-23T07:48:59.079Z,100546.44
2022-10-23T07:50:01.371Z,100540.44
2022-10-23T07:51:08.585Z,100542.78
2022-10-23T07:52:14.997Z,100547.84
2022-10-23T07:53:42.822Z,100540.78
2022-10-23T07:54:53.808Z,100539.47
2022-10-23T07:56:02.258Z,100543.72
2022-10-23T07:57:24.401Z,100540.25
2022-10-23T07:58:34.544Z,100538.94
2022-10-23T07:59:46.027Z,100539.56
2022-10-23T08:00:55.774Z,100539.34
2022-10-23T08:02:04.834Z,100540.00
2022-10-23T08:03:12.923Z,100537.84
2022-10-23T08:04:16.112Z,100540.38
2022-10-23T08:05:27.131Z,100537.69
2022-10-23T08:06:35.502Z,100544.41
2022-10-23T08:07:37.896Z,100538.97
2022-10-23T08:08:41.103Z,100547.34
2022-10-23T08:09:44.338Z,100547.44
2022-10-23T08:10:48.347Z,100542.22
2022-10-23T08:11:56.379Z,100538.44
2022-10-23T08:13:01.578Z,100545.94
2022-10-23T08:14:23.795Z,100547.69
2022-10-23T08:15:26.109Z,100540.56
2022-10-23T08:16:36.387Z,100547.25
2022-10-23T08:17:39.329Z,100550.06
2022-10-23T08:18:49.729Z,100544.28
2022-10-23T08:19:53.441Z,100550.69
2022-10-23T08:21:02.001Z,100549.91
2022-10-23T08:22:04.591Z,100547.97
2022-10-23T08:23:08.513Z,100544.94
2022-10-23T08:24:14.030Z,100547.19
2022-10-23T08:25:21.849Z,100544.44
2022-10-23T08:26:30.568Z,100540.53
2022-10-23T08:27:32.835Z,100536.13
2022-10-23T08:28:35.562Z,100537.50
2022-10-23T08:29:38.478Z,100541.38
2022-10-23T08:30:40.733Z,100538.06
2022-10-23T08:31:42.942Z,100532.50
2022-10-23T08:33:06.499Z,100532.50
2022-10-23T08:34:08.821Z,100529.97
2022-10-23T08:35:11.352Z,100522.47
2022-10-23T08:36:16.490Z,100525.75
2022-10-23T08:37:18.856Z,100520.75
2022-10-23T08:38:21.127Z,100525.19
2022-10-23T08:39:23.455Z,100524.59
2022-10-23T08:41:04.156Z,100523.44
2022-10-23T08:42:27.200Z,100522.88
2022-10-23T08:43:41.738Z,100519.50
2022-10-23T08:45:05.788Z,100518.94
2022-10-23T08:46:18.065Z,100519.13
2022-10-23T08:47:50.187Z,100527.72
2022-10-23T08:49:41.314Z,100516.22
2022-10-23T08:50:48.772Z,100523.97
2022-10-23T08:51:55.975Z,100516.94
2022-10-23T08:53:14.899Z,100513.84
2022-10-23T08:54:22.931Z,100516.03
2022-10-23T08:55:25.345Z,100522.06
2022-10-23T08:56:31.060Z,100520.63
2022-10-23T08:57:43.710Z,100515.59
2022-10-23T08:58:55.583Z,100517.75
2022-10-23T09:00:01.180Z,100519.38
2022-10-23T09:01:30.863Z,100523.47
2022-10-23T09:03:02.157Z,100517.84
2022-10-23T09:04:05.375Z,100515.31
2022-10-23T09:05:15.762Z,100509.16
2022-10-23T09:06:30.051Z,100506.31
2022-10-23T09:07:34.164Z,100499.63
2022-10-23T09:08:59.560Z,100507.94
2022-10-23T09:10:17.534Z,100496.78
2022-10-23T09:11:40.161Z,100497.00
2022-10-23T09:12:43.000Z,100491.16
2022-10-23T09:14:09.900Z,100494.69
2022-10-23T09:15:24.227Z,100492.97
2022-10-23T09:16:49.116Z,100487.66
2022-10-23T09:18:07.758Z,100490.91
2022-10-23T09:19:17.673Z,100487.22
2022-10-23T09:20:21.821Z,100481.88
2022-10-23T09:21:29.368Z,100482.34
2022-10-23T09:22:31.591Z,100477.59
2022-10-23T09:23:33.857Z,100475.53
2022-10-23T09:24:36.590Z,100465.44
2022-10-23T09:25:41.145Z,100479.31
2022-10-23T09:26:48.381Z,100477.28
2022-10-23T09:27:56.155Z,100480.63
2022-10-23T09:29:14.269Z,100482.22
2022-10-23T09:30:36.677Z,100487.41
2022-10-23T09:31:50.766Z,100488.47
2022-10-23T09:32:52.983Z,100494.59
2022-10-23T09:34:02.541Z,100489.50
2022-10-23T09:35:06.206Z,100494.78
2022-10-23T09:36:20.416Z,100496.16
2022-10-23T09:37:22.642Z,100488.63
2022-10-23T09:38:28.038Z,100483.03
2022-10-23T09:39:34.571Z,100486.66
2022-10-23T09:40:42.943Z,100496.69
2022-10-23T09:41:45.877Z,100493.91
2022-10-23T09:42:55.016Z,100498.34
2022-10-23T09:44:26.049Z,100493.91
2022-10-23T09:45:34.130Z,100497.22
2022-10-23T09:46:41.618Z,100497.50
2022-10-23T09:47:44.025Z,100495.88
2022-10-23T09:48:59.034Z,100494.19
2022-10-23T09:50:03.140Z,100485.53
2022-10-23T09:51:22.065Z,100495.56
2022-10-23T09:52:32.813Z,100492.47
2022-10-23T09:53:38.914Z,100489.38
2022-10-23T09:54:45.549Z,100493.00
2022-10-23T09:55:53.667Z,100497.66
2022-10-23T09:57:01.253Z,100496.22
2022-10-23T09:58:03.452Z,100496.78
2022-10-23T09:59:27.018Z,100497.59
2022-10-23T10:00:29.242Z,100488.59
2022-10-23T10:01:36.436Z,100494.72
2022-10-23T10:03:07.004Z,100485.72
2022-10-23T10:04:40.300Z,100488.44
2022-10-23T10:05:44.205Z,100492.28
2022-10-23T10:06:59.580Z,100489.75
2022-10-23T10:08:17.907Z,100488.28
2022-10-23T10:09:20.192Z,100491.31
2022-10-23T10:10:23.526Z,100490.19
2022-10-23T10:11:35.392Z,100484.28
2022-10-23T10:12:51.740Z,100487.63
2022-10-23T10:14:03.281Z,100489.78
2022-10-23T10:15:20.659Z,100490.34
2022-10-23T10:16:56.734Z,100484.13
2022-10-23T10:18:07.664Z,100476.25
2022-10-23T10:19:37.905Z,100482.38
2022-10-23T10:21:21.823Z,100481.25
2022-10-23T10:22:37.901Z,100471.72
2022-10-23T10:23:50.472Z,100475.88
2022-10-23T10:25:01.971Z,100468.31
2022-10-23T10:26:16.677Z,100472.78
2022-10-23T10:28:03.569Z,100471.09
2022-10-23T10:29:11.716Z,100466.34
2022-10-23T10:30:19.295Z,100471.91
2022-10-23T10:31:33.451Z,100464.88
2022-10-23T10:32:41.375Z,100463.75
2022-10-23T10:33:57.935Z,100463.44
2022-10-23T10:35:08.646Z,100458.41
2022-10-23T10:36:54.655Z,100468.13
2022-10-23T10:38:31.611Z,100464.50
2022-10-23T10:40:00.856Z,100463.66
2022-10-23T10:41:25.088Z,100453.34
2022-10-23T10:42:43.270Z,100458.63
2022-10-23T10:44:11.017Z,100453.34
2022-10-23T10:45:19.862Z,100455.81
2022-10-23T10:46:28.975Z,100451.38
2022-10-23T10:47:51.872Z,100457.25
2022-10-23T10:49:08.223Z,100461.72
2022-10-23T10:50:38.037Z,100449.19
2022-10-23T10:51:53.243Z,100447.53
2022-10-23T10:53:10.180Z,100438.63
2022-10-23T10:54:27.768Z,100436.94
2022-10-23T10:55:37.755Z,100434.47
2022-10-23T10:56:43.934Z,100427.22
2022-10-23T10:57:51.248Z,100425.59
2022-10-23T10:59:02.215Z,100428.06
2022-10-23T11:00:14.018Z,100424.44
2022-10-23T11:01:47.431Z,100416.34
2022-10-23T11:02:57.551Z,100425.59
2022-10-23T11:04:14.758Z,100428.38
2022-10-23T11:07:26.866Z,100422.47
2022-10-23T11:08:49.845Z,100412.13
2022-10-23T11:10:04.779Z,100412.97
2022-10-23T11:11:18.157Z,100407.38
2022-10-23T11:12:26.642Z,100414.91
2022-10-23T11:13:35.922Z,100413.25
2022-10-23T11:14:38.395Z,100408.50
2022-10-23T11:15:43.225Z,100409.97
2022-10-23T11:16:52.120Z,100410.78
2022-10-23T11:17:59.723Z,100412.22
2022-10-23T11:19:19.861Z,100418.13
2022-10-23T11:20:32.275Z,100408.06
2022-10-23T11:21:51.918Z,100401.66
2022-10-23T11:23:18.375Z,100413.66
2022-10-23T11:24:45.298Z,100401.44
2022-10-23T11:26:10.859Z,100394.50
2022-10-23T11:27:26.253Z,100392.03
2022-10-23T11:28:54.771Z,100384.78
2022-10-23T11:30:23.978Z,100389.88
2022-10-23T11:32:02.295Z,100386.53
2022-10-23T11:33:37.653Z,100390.25
2022-10-23T11:35:14.900Z,100384.66
2022-10-23T11:36:39.098Z,100390.56
2022-10-23T11:37:41.802Z,100384.16
2022-10-23T11:38:47.539Z,100378.03
2022-10-23T11:40:08.063Z,100378.34
2022-10-23T11:41:26.720Z,100375.56
2022-10-23T11:42:32.844Z,100372.75
2022-10-23T11:43:49.038Z,100369.97
2022-10-23T11:44:51.360Z,100374.72
2022-10-23T11:45:55.601Z,100368.91
2022-10-23T11:47:25.867Z,100366.91
2022-10-23T11:48:44.002Z,100371.16
2022-10-23T11:49:47.652Z,100361.16
2022-10-23T11:50:55.644Z,100364.75
2022-10-23T11:52:06.027Z,100360.63
2022-10-23T11:53:25.817Z,100361.75
2022-10-23T11:54:28.015Z,100371.25
2022-10-23T11:55:31.883Z,100368.47
2022-10-23T11:56:34.354Z,100364.03
2022-10-23T11:57:36.615Z,100358.72
2022-10-23T11:58:48.055Z,100361.53
2022-10-23T11:59:56.409Z,100348.72
2022-10-23T12:01:26.490Z,100357.09
2022-10-23T12:02:33.006Z,100352.66
2022-10-23T12:04:13.753Z,100355.22
2022-10-23T12:05:40.608Z,100353.53
2022-10-23T12:06:52.917Z,100355.84
2022-10-23T12:07:58.857Z,100357.47
2022-10-23T12:09:07.996Z,100360.56
2022-10-23T12:10:30.128Z,100347.75
2022-10-23T12:11:49.168Z,100358.09
2022-10-23T12:12:57.622Z,100355.63
2022-10-23T12:14:00.004Z,100355.69
2022-10-23T12:15:15.753Z,100354.88
2022-10-23T12:16:18.060Z,100344.84
2022-10-23T12:17:22.989Z,100337.91
2022-10-23T12:18:27.609Z,100349.38
2022-10-23T12:19:44.534Z,100349.66
2022-10-23T12:20:57.766Z,100338.00
2022-10-23T12:22:02.322Z,100339.94
2022-10-23T12:23:26.465Z,100341.38
2022-10-23T12:24:40.033Z,100345.31
2022-10-23T12:25:45.418Z,100340.34
2022-10-23T12:26:59.537Z,100327.50
2022-10-23T12:28:25.895Z,100335.06
2022-10-23T12:29:41.085Z,100329.78
2022-10-23T12:30:51.028Z,100325.66
2022-10-23T12:32:06.158Z,100325.13
2022-10-23T12:33:11.299Z,100322.63
2022-10-23T12:34:45.664Z,100324.38
2022-10-23T12:36:15.656Z,100326.94
2022-10-23T12:37:55.260Z,100320.63
2022-10-23T12:38:58.807Z,100322.06
2022-10-23T12:40:02.035Z,100320.41
2022-10-23T12:41:21.458Z,100308.19
2022-10-23T12:42:27.516Z,100302.09
2022-10-23T12:43:35.921Z,100309.09
2022-10-23T12:44:38.152Z,100302.75
2022-10-23T12:45:43.692Z,100298.31
2022-10-23T12:46:51.197Z,100299.97
2022-10-23T12:47:54.021Z,100303.38
2022-10-23T12:48:56.994Z,100299.72
2022-10-23T12:49:59.327Z,100296.75
2022-10-23T12:51:01.564Z,100290.31
2022-10-23T12:52:06.221Z,100289.28
2022-10-23T12:53:17.957Z,100285.13
2022-10-23T12:54:21.431Z,100279.56
2022-10-23T12:55:25.894Z,100289.88
2022-10-23T12:56:35.188Z,100283.78
2022-10-23T12:57:44.299Z,100276.22
2022-10-23T12:58:56.151Z,100294.13
2022-10-23T13:00:06.286Z,100288.31
2022-10-23T13:01:24.152Z,100281.88
2022-10-23T13:02:29.716Z,100272.16
2022-10-23T13:03:33.866Z,100278.91
2022-10-23T13:04:37.046Z,100277.72
2022-10-23T13:05:39.361Z,100269.69
2022-10-23T13:06:42.093Z,100269.38
2022-10-23T13:07:47.363Z,100266.59
2022-10-23T13:08:52.610Z,100260.50
2022-10-23T13:10:18.134Z,100253.81
2022-10-23T13:11:28.683Z,100253.81
2022-10-23T13:12:36.799Z,100259.38
2022-10-23T13:13:41.691Z,100262.97
2022-10-23T13:15:26.921Z,100270.00
2022-10-23T13:16:29.208Z,100266.38
2022-10-23T13:17:45.462Z,100267.50
2022-10-23T13:18:49.082Z,100263.06
2022-10-23T13:19:51.353Z,100260.28
2022-10-23T13:20:53.612Z,100263.06
2022-10-23T13:21:56.445Z,100263.38
2022-10-23T13:23:19.695Z,100262.56
2022-10-23T13:24:23.228Z,100261.69
2022-10-23T13:25:32.159Z,100253.34
2022-10-23T13:26:47.651Z,100261.41
2022-10-23T13:27:49.981Z,100255.00